KMTC/MTC METAR and TAF weather

Enter ICAO airport designator
Station Type Date Time Source
KMTC METAR 2024/07/24 10:56 UTC NOAA

KMTC 241056Z 23006KT 10SM BKN120 OVC150 21/19 A2997 RMK AO2A SLP150 T02070188 $


Station Type Date Time Source
KMTC Decoded METAR 2024/07/24 10:56 UTC NOAA

Selfridge Air National Guard Base, MI, United States (KMTC) 42-37N 082-50W
Jul 24, 2024 - 06:56 AM EDT / 2024.07.24 1056 UTC
Wind: from the SW (230 degrees) at 7 MPH (6 KT):0
Visibility: 10 mile(s):0
Sky conditions: overcast
Temperature: 69.3 F (20.7 C)
Dew Point: 65.8 F (18.8 C)
Relative Humidity: 88%
Pressure (altimeter): 29.97 in. Hg (1014 hPa)
ob: KMTC 241056Z 23006KT 10SM BKN120 OVC150 21/19 A2997 RMK AO2A SLP150 T02070188
cycle: 11

Station Type Date Time Source
KMTC TAF 2024/07/24 11:07 UTC NOAA